Time;durP1;ratioP1;P1;durP2;ratioP2;P2;SDS_P1;SDS_P2;PMS_P1;PMS_P2;Temp;Humidity;BMP_temperature;BMP_pressure;BME280_temperature;BME280_humidity;BME280_pressure;Samples;Min_cycle;Max_cycle;Signal;HPM_P1;HPM_P2
2023/04/21 00:00:52;;;;;;;24.38;15.65;;;8.20;99.90;;;;;;5092164;28;20097;-60
2023/04/21 00:03:21;;;;;;;23.15;14.68;;;8.20;99.90;;;;;;5074414;28;20454;-62
2023/04/21 00:05:48;;;;;;;22.85;13.85;;;8.20;99.90;;;;;;5090584;28;20050;-60
2023/04/21 00:08:16;;;;;;;23.02;14.88;;;8.20;99.90;;;;;;5091906;28;20040;-61
2023/04/21 00:10:45;;;;;;;22.83;15.30;;;8.30;99.90;;;;;;5092451;28;20044;-61
2023/04/21 00:13:12;;;;;;;21.05;13.77;;;8.30;99.90;;;;;;5074545;28;20170;-60
2023/04/21 00:15:40;;;;;;;23.75;14.20;;;8.90;99.90;;;;;;5091959;28;20438;-62
2023/04/21 00:18:06;;;;;;;23.00;14.48;;;8.30;99.90;;;;;;5090243;28;20065;-61
2023/04/21 00:20:34;;;;;;;24.67;14.00;;;8.30;99.90;;;;;;5091672;28;20093;-61
2023/04/21 00:23:00;;;;;;;19.52;12.98;;;8.20;99.90;;;;;;5072498;28;20101;-60
2023/04/21 00:25:29;;;;;;;24.50;13.90;;;8.20;99.90;;;;;;5092608;28;20048;-61
2023/04/21 00:27:56;;;;;;;23.65;14.48;;;8.20;99.90;;;;;;5072030;28;20048;-61
2023/04/21 00:30:22;;;;;;;22.17;14.32;;;8.20;99.90;;;;;;5092159;28;20411;-62
2023/04/21 00:32:49;;;;;;;23.40;14.05;;;8.10;99.90;;;;;;5074371;28;20051;-62
2023/04/21 00:35:16;;;;;;;23.20;14.20;;;8.10;99.90;;;;;;5091548;28;20040;-62
2023/04/21 00:37:43;;;;;;;23.83;14.88;;;8.10;99.90;;;;;;5091790;28;20044;-61
2023/04/21 00:40:12;;;;;;;23.05;14.20;;;8.00;99.90;;;;;;5092030;28;20056;-62
2023/04/21 00:42:40;;;;;;;21.38;15.48;;;8.00;99.90;;;;;;5073913;28;20044;-61
2023/04/21 00:45:08;;;;;;;22.42;15.05;;;8.00;99.90;;;;;;5074207;28;20044;-62
2023/04/21 00:47:35;;;;;;;26.40;15.02;;;7.90;99.90;;;;;;5092250;28;20056;-62
2023/04/21 00:50:03;;;;;;;24.92;14.52;;;7.90;99.90;;;;;;5088985;28;20075;-61
2023/04/21 00:52:31;;;;;;;25.00;15.10;;;7.90;99.90;;;;;;5074254;28;20060;-61
2023/04/21 00:54:59;;;;;;;28.50;14.88;;;7.90;99.90;;;;;;5092232;28;20106;-61
2023/04/21 00:57:27;;;;;;;24.42;15.38;;;7.90;99.90;;;;;;5073231;28;20052;-62
2023/04/21 00:59:55;;;;;;;24.98;15.80;;;7.80;99.90;;;;;;5074114;28;20093;-62
2023/04/21 01:02:23;;;;;;;23.67;14.30;;;7.80;99.90;;;;;;5071988;28;20407;-61
2023/04/21 01:04:50;;;;;;;24.77;15.70;;;7.80;99.90;;;;;;5091280;28;20044;-61
2023/04/21 01:07:16;;;;;;;25.48;15.18;;;7.70;99.90;;;;;;5074230;28;20052;-61
2023/04/21 01:09:43;;;;;;;21.80;14.63;;;7.70;99.90;;;;;;5073305;28;20052;-61
2023/04/21 01:12:12;;;;;;;25.50;14.95;;;7.80;99.90;;;;;;5092025;28;20048;-61
2023/04/21 01:14:40;;;;;;;20.42;15.10;;;7.70;99.90;;;;;;5073774;28;20105;-62
2023/04/21 01:17:09;;;;;;;21.25;15.50;;;7.70;99.90;;;;;;5073377;28;20510;-61
2023/04/21 01:19:40;;;;;;;21.05;14.38;;;7.70;99.90;;;;;;5095677;28;20043;-62
2023/04/21 01:22:09;;;;;;;;;;;7.60;99.90;;;;;;5096378;28;20043;-62
2023/04/21 01:24:38;;;;;;;22.70;14.02;;;7.60;99.90;;;;;;5093425;28;19920;-62
2023/04/21 01:27:09;;;;;;;25.65;16.48;;;8.60;99.90;;;;;;5077746;28;20093;-62
2023/04/21 01:29:36;;;;;;;21.85;15.10;;;7.60;99.90;;;;;;5095674;28;20052;-61
2023/04/21 01:32:06;;;;;;;19.67;13.88;;;7.60;99.90;;;;;;5095196;28;20040;-60
2023/04/21 01:34:33;;;;;;;21.52;15.30;;;7.50;99.90;;;;;;5077414;28;20060;-61
2023/04/21 01:37:00;;;;;;;21.25;13.75;;;7.60;99.90;;;;;;5077692;28;20093;-61
2023/04/21 01:39:29;;;;;;;24.35;15.20;;;7.60;99.90;;;;;;5094888;28;20097;-61
2023/04/21 01:41:57;;;;;;;28.70;15.45;;;7.60;99.90;;;;;;5095330;28;20439;-62
2023/04/21 01:44:25;;;;;;;26.30;14.38;;;7.60;99.90;;;;;;5093195;28;20123;-60
2023/04/21 01:46:52;;;;;;;20.50;13.95;;;7.60;99.90;;;;;;5094940;28;20127;-62
2023/04/21 01:49:19;;;;;;;23.77;14.52;;;7.60;99.90;;;;;;5095239;28;20518;-61
2023/04/21 01:51:46;;;;;;;20.45;13.35;;;7.60;99.90;;;;;;5094993;28;20411;-61
2023/04/21 01:54:13;;;;;;;22.45;13.90;;;7.70;99.90;;;;;;5076591;28;20049;-61
2023/04/21 01:56:41;;;;;;;21.88;14.43;;;7.70;99.90;;;;;;5095025;28;20168;-60
2023/04/21 01:59:08;;;;;;;23.17;14.18;;;7.60;99.90;;;;;;5094508;28;20105;-60
2023/04/21 02:01:35;;;;;;;20.30;14.45;;;7.60;99.90;;;;;;5092931;28;20063;-61
2023/04/21 02:04:03;;;;;;;20.30;14.85;;;7.60;99.90;;;;;;5076611;28;20135;-60
2023/04/21 02:06:31;;;;;;;19.95;14.35;;;7.60;99.90;;;;;;5094212;28;20554;-60
2023/04/21 02:08:58;;;;;;;19.38;14.27;;;7.60;99.90;;;;;;5094912;28;20055;-61
2023/04/21 02:11:25;;;;;;;23.77;13.98;;;7.50;99.90;;;;;;5076821;28;20117;-62
2023/04/21 02:13:54;;;;;;;21.70;14.60;;;7.50;99.90;;;;;;5094266;28;20069;-61
2023/04/21 02:16:24;;;;;;;23.00;15.43;;;7.50;99.90;;;;;;5094827;28;20048;-62
2023/04/21 02:18:52;;;;;;;;;;;7.50;99.90;;;;;;5093832;28;20040;-61
2023/04/21 02:21:20;;;;;;;23.85;14.73;;;7.40;99.90;;;;;;5076085;28;19920;-61
2023/04/21 02:23:47;;;;;;;22.27;14.43;;;7.40;99.90;;;;;;5076468;28;20052;-61
2023/04/21 02:26:14;;;;;;;26.50;15.65;;;7.40;99.90;;;;;;5094593;28;20036;-62
2023/04/21 02:28:41;;;;;;;20.52;14.50;;;7.40;99.90;;;;;;5093490;28;20153;-61
2023/04/21 02:31:09;;;;;;;21.80;15.40;;;7.40;99.90;;;;;;5093818;28;20101;-60
2023/04/21 02:33:36;;;;;;;24.77;15.75;;;7.40;99.90;;;;;;5076578;28;20105;-61
2023/04/21 02:36:03;;;;;;;26.52;15.40;;;7.40;99.90;;;;;;5073673;28;20040;-61
2023/04/21 02:38:30;;;;;;;23.48;15.50;;;7.40;99.90;;;;;;5076496;28;20052;-62
2023/04/21 02:40:57;;;;;;;21.02;15.23;;;7.40;99.90;;;;;;5094274;28;20044;-61
2023/04/21 02:43:24;;;;;;;21.35;14.77;;;7.40;99.90;;;;;;5093883;28;20469;-61
2023/04/21 02:45:52;;;;;;;28.08;16.40;;;7.40;99.90;;;;;;5094181;28;20048;-62
2023/04/21 02:48:21;;;;;;;23.05;14.80;;;7.40;99.90;;;;;;5075699;28;20060;-61
2023/04/21 02:50:49;;;;;;;25.02;16.27;;;7.40;99.90;;;;;;5076160;28;20052;-60
2023/04/21 02:53:16;;;;;;;25.13;14.98;;;7.40;99.90;;;;;;5093929;28;20091;-61
2023/04/21 02:55:43;;;;;;;24.58;16.02;;;7.30;99.90;;;;;;5093437;28;20076;-62
2023/04/21 02:58:10;;;;;;;25.08;14.70;;;7.40;99.90;;;;;;5094073;28;20044;-61
2023/04/21 03:00:37;;;;;;;21.60;14.88;;;7.50;99.90;;;;;;5075638;28;20511;-60
2023/04/21 03:03:04;;;;;;;24.33;15.35;;;7.40;99.90;;;;;;5075071;28;20117;-61
2023/04/21 03:05:32;;;;;;;24.83;14.00;;;7.50;99.90;;;;;;5093886;28;20040;-62
2023/04/21 03:07:59;;;;;;;23.98;15.07;;;7.50;99.90;;;;;;5073660;28;20097;-61
2023/04/21 03:10:26;;;;;;;26.58;16.00;;;7.50;99.90;;;;;;5092876;28;20051;-61
2023/04/21 03:12:55;;;;;;;25.60;15.40;;;7.50;99.90;;;;;;5093926;28;20089;-61
2023/04/21 03:15:22;;;;;;;25.52;15.52;;;7.60;99.90;;;;;;5093669;28;20036;-60
2023/04/21 03:17:49;;;;;;;22.98;15.05;;;7.50;99.90;;;;;;5093035;28;20083;-61
2023/04/21 03:20:16;;;;;;;21.77;14.10;;;7.60;99.90;;;;;;5093241;28;20109;-61
2023/04/21 03:22:44;;;;;;;21.55;14.32;;;7.60;99.90;;;;;;5093662;28;20040;-61
2023/04/21 03:25:11;;;;;;;20.10;13.95;;;7.60;99.90;;;;;;5072741;28;20052;-61
2023/04/21 03:27:38;;;;;;;24.70;14.43;;;7.60;99.90;;;;;;5075143;28;20083;-61
2023/04/21 03:30:06;;;;;;;27.90;14.52;;;7.60;99.90;;;;;;5073143;28;20063;-61
2023/04/21 03:32:33;;;;;;;23.65;14.15;;;7.60;99.90;;;;;;5092497;28;20492;-61
2023/04/21 03:35:00;;;;;;;22.17;13.45;;;7.60;99.90;;;;;;5093621;28;20048;-61
2023/04/21 03:37:27;;;;;;;23.73;12.45;;;7.60;99.90;;;;;;5074481;28;20048;-62
2023/04/21 03:39:55;;;;;;;26.02;13.75;;;7.70;99.90;;;;;;5092736;28;20492;-60
2023/04/21 03:42:22;;;;;;;24.63;13.82;;;7.70;99.90;;;;;;5090756;28;20052;-62
2023/04/21 03:44:49;;;;;;;22.27;13.63;;;7.70;99.90;;;;;;5074661;28;20108;-62
2023/04/21 03:47:16;;;;;;;22.92;13.45;;;7.70;99.90;;;;;;5092714;28;20040;-60
2023/04/21 03:49:43;;;;;;;23.75;13.35;;;7.70;99.90;;;;;;5065939;28;20056;-62
2023/04/21 03:52:10;;;;;;;22.40;13.90;;;7.70;99.90;;;;;;5083853;28;20093;-61
2023/04/21 03:54:37;;;;;;;20.70;13.73;;;7.70;99.90;;;;;;5088360;28;20137;-62
2023/04/21 03:57:06;;;;;;;21.60;14.15;;;7.70;99.90;;;;;;5089891;28;20484;-62
2023/04/21 03:59:32;;;;;;;20.88;12.27;;;7.60;99.90;;;;;;5069091;28;20047;-60
2023/04/21 04:01:59;;;;;;;18.95;12.80;;;7.60;99.90;;;;;;5088217;28;20052;-62
2023/04/21 04:04:26;;;;;;;18.23;13.02;;;7.60;99.90;;;;;;5070141;28;20056;-62
2023/04/21 04:06:53;;;;;;;20.00;12.35;;;7.60;99.90;;;;;;5086191;28;20510;-61
2023/04/21 04:09:20;;;;;;;19.38;12.63;;;7.60;99.90;;;;;;5090542;28;20044;-61
2023/04/21 04:11:47;;;;;;;20.30;13.15;;;7.60;99.90;;;;;;5070667;28;20048;-62
2023/04/21 04:14:15;;;;;;;19.30;12.38;;;7.60;99.90;;;;;;5069809;28;20495;-61
2023/04/21 04:16:42;;;;;;;19.85;13.52;;;7.60;99.90;;;;;;5071368;28;20130;-62
2023/04/21 04:19:09;;;;;;;18.83;12.48;;;7.60;99.90;;;;;;5089178;28;20448;-60
2023/04/21 04:21:36;;;;;;;25.00;12.68;;;7.60;99.90;;;;;;5070420;28;20063;-61
2023/04/21 04:24:04;;;;;;;23.52;13.32;;;7.60;99.90;;;;;;5071759;28;20055;-60
2023/04/21 04:26:32;;;;;;;18.88;12.80;;;7.60;99.90;;;;;;5087001;28;20226;-61
2023/04/21 04:29:01;;;;;;;17.90;12.10;;;7.60;99.90;;;;;;5089980;28;20051;-62
2023/04/21 04:31:29;;;;;;;19.27;12.02;;;7.60;99.90;;;;;;5089201;28;20047;-61
2023/04/21 04:33:56;;;;;;;19.45;12.52;;;7.60;99.90;;;;;;5089378;28;20096;-61
2023/04/21 04:36:23;;;;;;;17.33;13.05;;;7.60;99.90;;;;;;5069949;28;20549;-60
2023/04/21 04:38:51;;;;;;;15.38;11.73;;;7.70;99.90;;;;;;5072606;28;20052;-61
2023/04/21 04:41:18;;;;;;;17.25;11.63;;;7.70;99.90;;;;;;5087251;28;20117;-61
2023/04/21 04:43:45;;;;;;;27.02;13.00;;;7.70;99.90;;;;;;5070291;28;20055;-61
2023/04/21 04:46:13;;;;;;;19.80;12.40;;;7.70;99.90;;;;;;5068410;28;20040;-62
2023/04/21 04:48:41;;;;;;;20.50;13.20;;;7.80;99.90;;;;;;5071778;28;20090;-63
2023/04/21 04:51:08;;;;;;;21.60;12.27;;;7.80;99.90;;;;;;5068666;28;20047;-62
2023/04/21 04:53:35;;;;;;;18.25;12.20;;;7.80;99.90;;;;;;5074051;28;20056;-62
2023/04/21 04:56:02;;;;;;;19.52;11.63;;;7.80;99.90;;;;;;5075404;28;20048;-62
2023/04/21 04:58:29;;;;;;;20.48;11.93;;;7.80;99.90;;;;;;5076076;28;20056;-62
2023/04/21 05:00:55;;;;;;;21.42;12.38;;;7.90;99.90;;;;;;5090973;28;20052;-61
2023/04/21 05:03:22;;;;;;;18.50;12.35;;;7.90;99.90;;;;;;5091467;28;20503;-63
2023/04/21 05:05:51;;;;;;;18.70;11.07;;;7.90;99.90;;;;;;5073582;28;20055;-61
2023/04/21 05:08:17;;;;;;;19.48;11.77;;;7.90;99.90;;;;;;5090013;28;20045;-62
2023/04/21 05:10:44;;;;;;;18.60;11.05;;;8.00;99.90;;;;;;5074173;28;20113;-62
2023/04/21 05:13:11;;;;;;;16.23;11.25;;;8.40;99.90;;;;;;5091039;28;20101;-62
2023/04/21 05:15:38;;;;;;;18.30;11.00;;;8.30;99.90;;;;;;5075227;28;20063;-62
2023/04/21 05:18:06;;;;;;;19.60;11.73;;;8.20;99.90;;;;;;5094013;28;20047;-62
2023/04/21 05:20:33;;;;;;;15.98;11.73;;;8.20;99.90;;;;;;5092216;28;20040;-61
2023/04/21 05:23:01;;;;;;;20.25;11.45;;;8.20;99.90;;;;;;5071068;28;20117;-61
2023/04/21 05:25:28;;;;;;;19.40;12.23;;;8.30;99.90;;;;;;5092002;28;20113;-62
2023/04/21 05:27:55;;;;;;;19.90;11.25;;;8.20;99.90;;;;;;5093100;28;20040;-61
2023/04/21 05:30:22;;;;;;;17.92;10.43;;;8.30;99.90;;;;;;5091826;28;20048;-62
2023/04/21 05:32:49;;;;;;;15.90;10.43;;;8.30;99.90;;;;;;5072604;28;20492;-62
2023/04/21 05:35:16;;;;;;;22.50;11.00;;;8.40;99.90;;;;;;5076408;28;20052;-61
2023/04/21 05:37:43;;;;;;;16.75;9.75;;;8.50;99.90;;;;;;5089434;28;20101;-62
2023/04/21 05:40:11;;;;;;;17.92;10.40;;;8.50;99.90;;;;;;5073273;28;20114;-61
2023/04/21 05:42:38;;;;;;;20.17;10.93;;;8.60;99.90;;;;;;5087385;28;20515;-62
2023/04/21 05:45:06;;;;;;;20.35;10.80;;;8.60;99.90;;;;;;5073332;28;20105;-61
2023/04/21 05:47:33;;;;;;;17.63;10.63;;;8.70;99.90;;;;;;5072194;28;20055;-62
2023/04/21 05:50:00;;;;;;;22.02;11.27;;;8.70;99.90;;;;;;5094667;28;20048;-63
2023/04/21 05:52:27;;;;;;;17.58;10.65;;;8.80;99.90;;;;;;5072142;28;20055;-61
2023/04/21 05:54:53;;;;;;;16.60;9.50;;;8.90;99.90;;;;;;5075602;28;20055;-61
2023/04/21 05:57:22;;;;;;;15.93;10.50;;;9.00;99.90;;;;;;5091570;28;21277;-61
2023/04/21 05:59:48;;;;;;;17.05;9.75;;;9.20;99.90;;;;;;5091817;28;20109;-62
2023/04/21 06:02:15;;;;;;;17.30;9.25;;;9.30;99.90;;;;;;5092561;28;20477;-62
2023/04/21 06:04:42;;;;;;;15.60;10.10;;;9.40;99.90;;;;;;5093061;28;20457;-62
2023/04/21 06:07:12;;;;;;;14.73;9.88;;;9.70;99.90;;;;;;5093947;28;20059;-62
2023/04/21 06:09:40;;;;;;;14.02;9.50;;;9.90;99.90;;;;;;5092151;28;20460;-61
2023/04/21 06:12:07;;;;;;;17.23;9.45;;;10.10;99.90;;;;;;5093630;28;20122;-61
2023/04/21 06:14:35;;;;;;;16.05;10.02;;;10.20;99.90;;;;;;5093941;28;20048;-62
2023/04/21 06:17:02;;;;;;;14.57;9.27;;;10.40;99.90;;;;;;5093767;28;20093;-61
2023/04/21 06:19:29;;;;;;;26.80;10.27;;;10.50;99.90;;;;;;5093991;28;20056;-61
2023/04/21 06:21:56;;;;;;;17.05;9.98;;;10.80;99.90;;;;;;5076679;28;20063;-62
2023/04/21 06:24:25;;;;;;;19.00;9.32;;;11.10;99.90;;;;;;5094624;28;20453;-62
2023/04/21 06:26:52;;;;;;;13.25;8.75;;;11.30;99.90;;;;;;5076104;28;20517;-62
2023/04/21 06:29:19;;;;;;;14.50;8.35;;;11.70;99.90;;;;;;5086750;28;20121;-62
2023/04/21 06:31:47;;;;;;;14.70;9.55;;;12.00;99.90;;;;;;5076008;28;20384;-62
2023/04/21 06:34:14;;;;;;;14.45;9.38;;;12.40;99.90;;;;;;5091702;28;20051;-62
2023/04/21 06:36:41;;;;;;;14.48;9.13;;;12.70;99.90;;;;;;5076061;28;20052;-62
2023/04/21 06:39:08;;;;;;;13.30;8.80;;;12.90;99.90;;;;;;5094276;28;20051;-62
2023/04/21 06:41:35;;;;;;;14.15;9.30;;;13.00;99.90;;;;;;5093449;28;20047;-62
2023/04/21 06:44:02;;;;;;;12.98;9.02;;;13.20;99.90;;;;;;5094121;28;20048;-62
2023/04/21 06:46:29;;;;;;;18.40;8.85;;;13.60;99.90;;;;;;5075155;28;20054;-62
2023/04/21 06:48:57;;;;;;;18.65;8.15;;;13.90;99.90;;;;;;5089816;28;20049;-62
2023/04/21 06:51:24;;;;;;;16.10;8.38;;;14.10;99.90;;;;;;5093832;28;20036;-62
2023/04/21 06:53:51;;;;;;;15.35;7.90;;;14.50;99.90;;;;;;5076042;28;20105;-61
2023/04/21 06:56:18;;;;;;;15.65;8.30;;;14.90;99.90;;;;;;5092049;28;20055;-61
2023/04/21 06:58:45;;;;;;;12.95;8.15;;;14.80;99.90;;;;;;5075372;28;20048;-62
2023/04/21 07:01:12;;;;;;;14.13;8.30;;;15.00;99.90;;;;;;5093536;28;20051;-62
2023/04/21 07:03:39;;;;;;;13.73;7.65;;;15.30;99.90;;;;;;5074806;28;20579;-62
2023/04/21 07:06:08;;;;;;;13.80;8.00;;;15.80;99.90;;;;;;5093734;28;20047;-62
2023/04/21 07:08:35;;;;;;;10.05;7.63;;;15.40;99.90;;;;;;5092758;28;20093;-62
2023/04/21 07:11:02;;;;;;;20.40;8.68;;;15.50;99.90;;;;;;5093554;28;20125;-61
2023/04/21 07:13:29;;;;;;;12.25;7.72;;;15.80;99.90;;;;;;5075413;28;20056;-62
2023/04/21 07:15:56;;;;;;;9.60;6.40;;;16.50;99.90;;;;;;5092098;28;20081;-61
2023/04/21 07:18:23;;;;;;;14.43;8.30;;;17.40;99.90;;;;;;5074916;28;20450;-61
2023/04/21 07:20:50;;;;;;;14.32;7.15;;;16.90;99.90;;;;;;5093280;28;20051;-62
2023/04/21 07:23:18;;;;;;;13.15;7.82;;;16.50;99.90;;;;;;5092604;28;20048;-62
2023/04/21 07:25:45;;;;;;;12.80;7.65;;;16.70;99.90;;;;;;5093247;28;20040;-62
2023/04/21 07:28:13;;;;;;;14.27;8.55;;;16.90;99.90;;;;;;5093153;28;20051;-62
2023/04/21 07:30:40;;;;;;;17.90;8.05;;;17.30;99.90;;;;;;5092197;28;20047;-62
2023/04/21 07:33:08;;;;;;;13.65;7.47;;;17.40;99.90;;;;;;5093227;28;20040;-62
2023/04/21 07:35:35;;;;;;;15.05;7.57;;;17.60;99.90;;;;;;5092930;28;20143;-62
2023/04/21 07:38:02;;;;;;;12.38;7.13;;;17.50;99.90;;;;;;5092524;28;20055;-61
2023/04/21 07:40:30;;;;;;;14.48;7.45;;;18.00;99.90;;;;;;5074623;28;20101;-62
2023/04/21 07:42:57;;;;;;;14.30;7.72;;;17.60;99.90;;;;;;5092804;28;20044;-62
2023/04/21 07:45:25;;;;;;;12.65;8.10;;;17.40;99.90;;;;;;5074302;28;20051;-62
2023/04/21 07:47:52;;;;;;;15.18;6.82;;;17.60;99.90;;;;;;5092808;28;20649;-61
2023/04/21 07:50:19;;;;;;;8.05;5.30;;;17.90;99.90;;;;;;5092609;28;20048;-62
2023/04/21 07:52:46;;;;;;;9.32;5.57;;;18.60;99.90;;;;;;5092101;28;20051;-62
2023/04/21 07:55:13;;;;;;;8.70;5.70;;;19.50;99.90;;;;;;5092591;28;20093;-62
2023/04/21 07:57:42;;;;;;;12.95;6.43;;;19.80;99.00;;;;;;5074651;28;20545;-62
2023/04/21 08:00:10;;;;;;;14.40;6.85;;;19.80;98.60;;;;;;5090068;28;20520;-62
2023/04/21 08:02:37;;;;;;;11.05;6.68;;;20.20;97.50;;;;;;5074062;28;20473;-62
2023/04/21 08:05:04;;;;;;;10.85;6.22;;;20.30;96.00;;;;;;5092071;28;20046;-62
2023/04/21 08:07:31;;;;;;;11.85;7.00;;;20.60;96.90;;;;;;5074504;28;20047;-62
2023/04/21 08:09:59;;;;;;;8.68;6.05;;;20.90;96.10;;;;;;5092352;28;20051;-63
2023/04/21 08:12:26;;;;;;;14.68;6.80;;;21.10;94.60;;;;;;5089577;28;20079;-63
2023/04/21 08:14:54;;;;;;;13.55;7.13;;;21.10;94.20;;;;;;5092342;28;20073;-63
2023/04/21 08:17:21;;;;;;;12.02;7.05;;;20.20;94.60;;;;;;5090517;28;20040;-62
2023/04/21 08:19:48;;;;;;;11.57;6.93;;;20.50;95.80;;;;;;5091579;28;20044;-63
2023/04/21 08:22:15;;;;;;;12.20;6.57;;;20.40;94.70;;;;;;5092107;28;20561;-61
2023/04/21 08:24:42;;;;;;;13.30;7.05;;;20.10;95.10;;;;;;5091876;28;20060;-62
2023/04/21 08:27:09;;;;;;;10.93;7.13;;;20.50;94.60;;;;;;5073873;28;20511;-62
2023/04/21 08:29:36;;;;;;;13.43;7.72;;;20.80;94.50;;;;;;5091881;28;20492;-62
2023/04/21 08:32:04;;;;;;;10.25;7.00;;;20.60;94.10;;;;;;5092030;28;20097;-63
2023/04/21 08:34:31;;;;;;;12.95;7.20;;;20.60;94.10;;;;;;5091226;28;20055;-64
2023/04/21 08:36:58;;;;;;;13.13;7.22;;;20.40;94.50;;;;;;5074191;28;20128;-62
2023/04/21 08:39:25;;;;;;;13.27;7.68;;;19.80;94.90;;;;;;5073803;28;20101;-62
2023/04/21 08:41:52;;;;;;;18.52;6.75;;;20.30;94.20;;;;;;5073208;28;20055;-62
2023/04/21 08:44:20;;;;;;;16.90;6.88;;;20.30;94.00;;;;;;5073939;28;20078;-63
2023/04/21 08:46:50;;;;;;;13.88;6.93;;;19.70;94.50;;;;;;5091954;28;20514;-63
2023/04/21 08:49:20;;;;;;;11.33;6.70;;;20.00;94.50;;;;;;5089605;28;20044;-62
2023/04/21 08:51:47;;;;;;;10.68;6.70;;;20.10;94.40;;;;;;5091508;28;20123;-62
2023/04/21 08:54:14;;;;;;;11.45;6.60;;;20.40;94.50;;;;;;5091369;28;20101;-63
2023/04/21 08:56:41;;;;;;;14.07;7.57;;;20.30;95.10;;;;;;5091811;28;20048;-62
2023/04/21 08:59:08;;;;;;;15.07;6.72;;;21.40;95.00;;;;;;5073729;28;20484;-61
2023/04/21 09:02:09;;;;;;;13.82;6.88;;;21.20;94.00;;;;;;5072843;28;20572;-62
2023/04/21 09:04:40;;;;;;;12.23;6.40;;;21.60;93.80;;;;;;5071356;28;20051;-63
2023/04/21 09:07:08;;;;;;;10.18;6.70;;;22.00;93.20;;;;;;5071376;28;20460;-62
2023/04/21 09:09:50;;;;;;;10.90;6.50;;;22.40;92.80;;;;;;5070015;28;20062;-62
2023/04/21 09:12:17;;;;;;;11.10;6.93;;;22.30;92.80;;;;;;5090766;28;20133;-62
2023/04/21 09:14:44;;;;;;;14.63;6.80;;;22.50;92.60;;;;;;5073901;28;20056;-62
2023/04/21 09:17:11;;;;;;;14.25;7.22;;;22.60;91.90;;;;;;5073166;28;20044;-62
2023/04/21 09:19:39;;;;;;;11.73;6.88;;;22.00;92.10;;;;;;5091702;28;20109;-62
2023/04/21 09:22:06;;;;;;;13.88;6.50;;;22.20;92.20;;;;;;5088217;28;20090;-62
2023/04/21 09:24:33;;;;;;;13.05;6.47;;;22.00;91.80;;;;;;5072991;28;20495;-62
2023/04/21 09:27:03;;;;;;;14.43;6.75;;;22.10;91.60;;;;;;5090146;28;20576;-62
2023/04/21 09:29:30;;;;;;;12.77;6.45;;;22.90;91.60;;;;;;5064538;28;20489;-62
2023/04/21 09:31:57;;;;;;;13.65;6.72;;;23.40;91.40;;;;;;5071563;28;20047;-63
2023/04/21 09:34:25;;;;;;;15.75;6.70;;;22.80;90.50;;;;;;5088619;28;20082;-62
2023/04/21 09:37:01;;;;;;;11.48;5.82;;;23.20;90.00;;;;;;5090851;28;20040;-63
2023/04/21 09:39:30;;;;;;;11.48;6.55;;;23.50;87.60;;;;;;5074603;28;20089;-63
2023/04/21 09:41:57;;;;;;;14.88;6.55;;;24.00;87.10;;;;;;5072597;28;20100;-62
2023/04/21 09:44:24;;;;;;;12.13;6.18;;;23.90;87.00;;;;;;5073192;28;20070;-62
2023/04/21 09:46:57;;;;;;;10.70;6.25;;;23.50;89.10;;;;;;5076666;28;20048;-63
2023/04/21 09:49:29;;;;;;;10.25;5.97;;;23.60;86.00;;;;;;5093847;28;20040;-63
2023/04/21 09:51:57;;;;;;;12.75;5.82;;;23.00;85.10;;;;;;5074849;28;20059;-62
2023/04/21 09:54:30;;;;;;;13.27;6.25;;;23.30;85.60;;;;;;5076262;28;20442;-62
2023/04/21 09:57:00;;;;;;;13.43;6.28;;;23.40;85.60;;;;;;5094549;28;20105;-63
2023/04/21 09:59:29;;;;;;;;;;;24.30;85.20;;;;;;5094655;28;20051;-62
2023/04/21 10:01:59;;;;;;;12.63;6.22;;;24.40;83.50;;;;;;5076561;28;19924;-62
2023/04/21 10:04:28;;;;;;;12.02;5.45;;;24.20;83.80;;;;;;5093975;28;20056;-63
2023/04/21 10:06:55;;;;;;;7.78;5.60;;;24.20;83.50;;;;;;5094749;28;20048;-63
2023/04/21 10:09:25;;;;;;;10.15;5.75;;;24.60;83.40;;;;;;5094607;28;20392;-64
2023/04/21 10:11:54;;;;;;;9.85;6.40;;;25.30;81.90;;;;;;5072199;28;20052;-63
2023/04/21 10:14:21;;;;;;;9.43;5.68;;;23.80;81.00;;;;;;5094046;28;20470;-62
2023/04/21 10:16:56;;;;;;;10.05;5.85;;;23.70;81.70;;;;;;5094145;28;20089;-63
2023/04/21 10:19:24;;;;;;;13.45;6.30;;;24.10;81.20;;;;;;5064575;28;20131;-62
2023/04/21 10:21:52;;;;;;;10.75;6.50;;;24.00;82.00;;;;;;5064975;28;20572;-62
2023/04/21 10:24:19;;;;;;;12.10;6.40;;;24.10;81.40;;;;;;5094261;28;20496;-63
2023/04/21 10:26:49;;;;;;;9.32;5.78;;;23.90;81.60;;;;;;5072523;28;20055;-62
2023/04/21 10:29:28;;;;;;;10.50;6.30;;;24.20;81.50;;;;;;5074688;28;20052;-63
2023/04/21 10:31:55;;;;;;;10.63;6.25;;;24.20;82.50;;;;;;5092946;28;20048;-62
2023/04/21 10:34:29;;;;;;;12.75;6.78;;;24.10;81.50;;;;;;5093499;28;20500;-62
2023/04/21 10:37:18;;;;;;;10.63;5.70;;;24.30;81.50;;;;;;5076214;28;20054;-62
2023/04/21 10:39:55;;;;;;;11.97;6.30;;;24.20;81.00;;;;;;5093469;28;20072;-62
2023/04/21 10:42:29;;;;;;;11.10;6.47;;;24.60;80.40;;;;;;5075981;28;20480;-62
2023/04/21 10:45:07;;;;;;;13.05;6.60;;;24.50;78.00;;;;;;5094049;28;20094;-62
2023/04/21 10:47:39;;;;;;;12.80;6.00;;;24.50;78.90;;;;;;5093219;28;20093;-63
2023/04/21 10:50:15;;;;;;;12.77;6.20;;;25.00;78.50;;;;;;5074671;28;20127;-63
2023/04/21 10:52:47;;;;;;;9.02;5.32;;;25.30;78.30;;;;;;5093532;28;20040;-63
2023/04/21 10:55:15;;;;;;;8.32;5.20;;;25.50;78.40;;;;;;5075015;28;20056;-63
2023/04/21 10:57:45;;;;;;;12.02;5.25;;;26.20;78.90;;;;;;5093683;28;20364;-64
2023/04/21 11:00:16;;;;;;;11.82;6.10;;;26.40;77.30;;;;;;5093756;28;20044;-63
2023/04/21 11:02:44;;;;;;;10.30;4.72;;;26.50;75.70;;;;;;5092647;28;20056;-63
2023/04/21 11:05:11;;;;;;;12.30;4.85;;;25.70;74.40;;;;;;5075585;28;20395;-63
2023/04/21 11:07:38;;;;;;;8.65;5.10;;;25.80;75.10;;;;;;5093233;28;20557;-63
2023/04/21 11:10:07;;;;;;;8.05;4.75;;;25.30;74.80;;;;;;5093579;28;20430;-63
2023/04/21 11:12:36;;;;;;;11.23;5.00;;;25.30;75.40;;;;;;5090835;28;20420;-62
2023/04/21 11:15:08;;;;;;;9.07;4.72;;;25.30;74.40;;;;;;5092723;28;20415;-62
2023/04/21 11:17:38;;;;;;;9.45;4.93;;;25.60;75.90;;;;;;5091751;28;20048;-64
2023/04/21 11:20:06;;;;;;;10.02;5.10;;;25.50;74.10;;;;;;5075124;28;20052;-63
2023/04/21 11:22:33;;;;;;;11.48;5.55;;;25.40;74.30;;;;;;5092584;28;20125;-62
2023/04/21 11:25:01;;;;;;;9.30;4.97;;;25.50;74.40;;;;;;5093399;28;20044;-63
2023/04/21 11:27:29;;;;;;;6.97;4.72;;;24.60;73.50;;;;;;5092945;28;20048;-64
2023/04/21 11:29:57;;;;;;;8.80;5.43;;;25.20;74.00;;;;;;5074748;28;20055;-64
2023/04/21 11:32:25;;;;;;;10.82;4.88;;;26.00;72.70;;;;;;5074825;28;20052;-63
2023/04/21 11:34:52;;;;;;;10.55;4.85;;;26.70;73.40;;;;;;5093265;28;20044;-63
2023/04/21 11:37:24;;;;;;;9.65;4.43;;;26.90;72.10;;;;;;5074283;28;20044;-63
2023/04/21 11:39:57;;;;;;;9.80;4.70;;;26.50;69.40;;;;;;5074767;28;20040;-62
2023/04/21 11:42:23;;;;;;;10.00;5.30;;;26.10;70.10;;;;;;5092525;28;20436;-63
2023/04/21 11:44:50;;;;;;;10.00;4.30;;;25.90;70.60;;;;;;5092445;28;20078;-63
2023/04/21 11:47:19;;;;;;;10.82;4.70;;;26.50;71.40;;;;;;5092486;28;20082;-63
2023/04/21 11:49:53;;;;;;;10.05;4.57;;;26.80;69.40;;;;;;5090711;28;20496;-62
2023/04/21 11:52:21;;;;;;;7.78;3.63;;;26.10;69.00;;;;;;5072471;28;20056;-63
2023/04/21 11:54:54;;;;;;;9.63;4.13;;;26.20;70.00;;;;;;5092500;28;20507;-62
2023/04/21 11:57:23;;;;;;;10.43;4.82;;;25.60;70.00;;;;;;5092065;28;20094;-63
2023/04/21 11:59:49;;;;;;;11.68;4.57;;;25.50;70.60;;;;;;5090849;28;20445;-63
2023/04/21 12:02:22;;;;;;;10.77;4.35;;;25.10;69.80;;;;;;5091970;28;20059;-63
2023/04/21 12:05:03;;;;;;;10.13;4.13;;;24.90;70.30;;;;;;5090885;28;20047;-62
2023/04/21 12:07:31;;;;;;;9.85;4.25;;;25.30;70.70;;;;;;5091567;28;20093;-62
2023/04/21 12:09:58;;;;;;;7.70;4.03;;;25.00;69.80;;;;;;5092403;28;20461;-62
2023/04/21 12:12:25;;;;;;;10.05;4.65;;;24.60;70.90;;;;;;5073645;28;20400;-63
2023/04/21 12:14:53;;;;;;;10.63;4.15;;;24.80;71.30;;;;;;5092392;28;20098;-63
2023/04/21 12:17:20;;;;;;;10.13;4.10;;;25.20;71.00;;;;;;5092163;28;20108;-63
2023/04/21 12:19:47;;;;;;;9.50;3.85;;;25.00;70.70;;;;;;5073605;28;20123;-63
2023/04/21 12:22:17;;;;;;;18.85;4.50;;;25.10;69.70;;;;;;5089858;28;20040;-63
2023/04/21 12:24:44;;;;;;;11.60;3.83;;;25.10;70.20;;;;;;5074318;28;20467;-63
2023/04/21 12:27:11;;;;;;;10.13;4.30;;;24.90;70.70;;;;;;5073593;28;20051;-62
2023/04/21 12:29:39;;;;;;;10.55;3.60;;;24.50;70.60;;;;;;5074037;28;20109;-63
2023/04/21 12:32:06;;;;;;;8.88;3.67;;;24.70;70.40;;;;;;5091356;28;20123;-64
2023/04/21 12:34:33;;;;;;;14.70;4.40;;;24.20;71.70;;;;;;5091777;28;20052;-62
2023/04/21 12:37:00;;;;;;;10.55;4.07;;;23.40;70.90;;;;;;5073747;28;20044;-62
2023/04/21 12:39:30;;;;;;;9.20;3.75;;;23.60;72.10;;;;;;5073278;28;20140;-63
2023/04/21 12:41:57;;;;;;;9.88;4.03;;;24.80;71.80;;;;;;5091944;28;20067;-63